sensor_id;sensor_type;location;lat;lon;timestamp;temperature;humidity
57576;DHT22;43412;-33.800;150.804;2022-10-31T00:00:26;26.70;90.70
57576;DHT22;43412;-33.800;150.804;2022-10-31T00:02:52;26.60;90.40
57576;DHT22;43412;-33.800;150.804;2022-10-31T00:05:19;26.50;90.50
57576;DHT22;43412;-33.800;150.804;2022-10-31T00:07:46;26.40;90.60
57576;DHT22;43412;-33.800;150.804;2022-10-31T00:10:12;26.40;90.80
57576;DHT22;43412;-33.800;150.804;2022-10-31T00:12:39;26.40;90.70
57576;DHT22;43412;-33.800;150.804;2022-10-31T00:15:06;26.40;90.50
57576;DHT22;43412;-33.800;150.804;2022-10-31T00:17:34;26.40;90.50
57576;DHT22;43412;-33.800;150.804;2022-10-31T00:20:01;26.50;90.70
57576;DHT22;43412;-33.800;150.804;2022-10-31T00:22:27;26.60;90.80
57576;DHT22;43412;-33.800;150.804;2022-10-31T00:24:54;26.80;90.90
57576;DHT22;43412;-33.800;150.804;2022-10-31T00:27:21;27.10;90.50
57576;DHT22;43412;-33.800;150.804;2022-10-31T00:29:47;27.50;90.50
57576;DHT22;43412;-33.800;150.804;2022-10-31T00:32:14;27.90;90.60
57576;DHT22;43412;-33.800;150.804;2022-10-31T00:34:40;28.00;90.10
57576;DHT22;43412;-33.800;150.804;2022-10-31T00:37:07;28.10;90.50
57576;DHT22;43412;-33.800;150.804;2022-10-31T00:39:34;28.20;90.10
57576;DHT22;43412;-33.800;150.804;2022-10-31T00:42:00;28.30;90.00
57576;DHT22;43412;-33.800;150.804;2022-10-31T00:44:27;28.40;90.10
57576;DHT22;43412;-33.800;150.804;2022-10-31T00:46:54;28.50;89.70
57576;DHT22;43412;-33.800;150.804;2022-10-31T00:49:20;28.50;89.60
57576;DHT22;43412;-33.800;150.804;2022-10-31T00:51:47;28.70;89.80
57576;DHT22;43412;-33.800;150.804;2022-10-31T00:54:13;28.70;89.00
57576;DHT22;43412;-33.800;150.804;2022-10-31T00:56:40;28.70;89.40
57576;DHT22;43412;-33.800;150.804;2022-10-31T00:59:07;28.60;89.00
57576;DHT22;43412;-33.800;150.804;2022-10-31T01:01:33;28.60;89.50
57576;DHT22;43412;-33.800;150.804;2022-10-31T01:04:00;28.60;90.00
57576;DHT22;43412;-33.800;150.804;2022-10-31T01:06:27;28.50;89.70
57576;DHT22;43412;-33.800;150.804;2022-10-31T01:08:53;28.70;90.00
57576;DHT22;43412;-33.800;150.804;2022-10-31T01:11:20;29.10;90.20
57576;DHT22;43412;-33.800;150.804;2022-10-31T01:13:49;29.60;90.50
57576;DHT22;43412;-33.800;150.804;2022-10-31T01:16:18;30.10;90.00
57576;DHT22;43412;-33.800;150.804;2022-10-31T01:18:45;30.60;88.80
57576;DHT22;43412;-33.800;150.804;2022-10-31T01:21:13;30.90;88.60
57576;DHT22;43412;-33.800;150.804;2022-10-31T01:23:40;30.80;88.70
57576;DHT22;43412;-33.800;150.804;2022-10-31T01:26:08;30.70;88.30
57576;DHT22;43412;-33.800;150.804;2022-10-31T01:28:36;30.60;88.70
57576;DHT22;43412;-33.800;150.804;2022-10-31T01:31:04;30.50;88.70
57576;DHT22;43412;-33.800;150.804;2022-10-31T01:33:31;30.30;88.80
57576;DHT22;43412;-33.800;150.804;2022-10-31T01:35:58;29.90;88.40
57576;DHT22;43412;-33.800;150.804;2022-10-31T01:38:24;29.60;89.50
57576;DHT22;43412;-33.800;150.804;2022-10-31T01:40:51;29.40;89.60
57576;DHT22;43412;-33.800;150.804;2022-10-31T01:43:18;29.20;90.10
57576;DHT22;43412;-33.800;150.804;2022-10-31T01:45:52;28.80;89.60
57576;DHT22;43412;-33.800;150.804;2022-10-31T01:48:21;28.30;90.00
57576;DHT22;43412;-33.800;150.804;2022-10-31T01:50:49;27.70;90.60
57576;DHT22;43412;-33.800;150.804;2022-10-31T01:53:17;27.40;91.20
57576;DHT22;43412;-33.800;150.804;2022-10-31T01:55:44;27.30;91.60
57576;DHT22;43412;-33.800;150.804;2022-10-31T01:58:13;27.30;91.50
57576;DHT22;43412;-33.800;150.804;2022-10-31T02:00:40;27.20;92.30
57576;DHT22;43412;-33.800;150.804;2022-10-31T02:03:08;27.00;93.00
57576;DHT22;43412;-33.800;150.804;2022-10-31T02:05:35;26.80;92.80
57576;DHT22;43412;-33.800;150.804;2022-10-31T02:08:25;26.60;93.30
57576;DHT22;43412;-33.800;150.804;2022-10-31T02:10:48;26.50;93.50
57576;DHT22;43412;-33.800;150.804;2022-10-31T02:13:16;26.40;93.60
57576;DHT22;43412;-33.800;150.804;2022-10-31T02:15:44;26.40;93.70
57576;DHT22;43412;-33.800;150.804;2022-10-31T02:18:11;26.40;93.70
57576;DHT22;43412;-33.800;150.804;2022-10-31T02:23:32;26.40;93.60
57576;DHT22;43412;-33.800;150.804;2022-10-31T02:28:52;26.40;94.00
57576;DHT22;43412;-33.800;150.804;2022-10-31T02:31:35;26.40;94.00
57576;DHT22;43412;-33.800;150.804;2022-10-31T02:34:16;26.40;94.10
57576;DHT22;43412;-33.800;150.804;2022-10-31T02:39:17;26.30;94.10
57576;DHT22;43412;-33.800;150.804;2022-10-31T02:41:49;26.30;94.40
57576;DHT22;43412;-33.800;150.804;2022-10-31T02:46:56;26.30;94.70
57576;DHT22;43412;-33.800;150.804;2022-10-31T02:49:32;26.20;94.90
57576;DHT22;43412;-33.800;150.804;2022-10-31T02:52:01;26.30;95.00
57576;DHT22;43412;-33.800;150.804;2022-10-31T02:54:27;26.20;95.10
57576;DHT22;43412;-33.800;150.804;2022-10-31T02:56:57;26.20;95.20
57576;DHT22;43412;-33.800;150.804;2022-10-31T02:59:25;26.20;95.30
57576;DHT22;43412;-33.800;150.804;2022-10-31T03:02:15;26.20;95.40
57576;DHT22;43412;-33.800;150.804;2022-10-31T03:12:38;25.90;96.90
57576;DHT22;43412;-33.800;150.804;2022-10-31T03:20:14;25.90;97.80
57576;DHT22;43412;-33.800;150.804;2022-10-31T03:22:43;25.90;97.90
57576;DHT22;43412;-33.800;150.804;2022-10-31T03:25:10;25.80;98.10
57576;DHT22;43412;-33.800;150.804;2022-10-31T03:27:38;25.80;97.90
57576;DHT22;43412;-33.800;150.804;2022-10-31T03:30:05;25.70;98.30
57576;DHT22;43412;-33.800;150.804;2022-10-31T03:32:35;25.70;98.80
57576;DHT22;43412;-33.800;150.804;2022-10-31T03:35:03;25.60;99.60
57576;DHT22;43412;-33.800;150.804;2022-10-31T03:37:30;25.50;99.80
57576;DHT22;43412;-33.800;150.804;2022-10-31T03:39:58;25.50;99.90
57576;DHT22;43412;-33.800;150.804;2022-10-31T03:42:27;25.50;99.90
57576;DHT22;43412;-33.800;150.804;2022-10-31T03:44:58;25.60;99.90
57576;DHT22;43412;-33.800;150.804;2022-10-31T03:47:25;25.70;99.20
57576;DHT22;43412;-33.800;150.804;2022-10-31T03:49:52;25.90;98.80
57576;DHT22;43412;-33.800;150.804;2022-10-31T03:52:27;26.10;97.80
57576;DHT22;43412;-33.800;150.804;2022-10-31T03:54:56;26.20;99.10
57576;DHT22;43412;-33.800;150.804;2022-10-31T03:59:51;25.90;98.60
57576;DHT22;43412;-33.800;150.804;2022-10-31T04:02:20;26.00;97.90
57576;DHT22;43412;-33.800;150.804;2022-10-31T04:04:48;25.90;97.40
57576;DHT22;43412;-33.800;150.804;2022-10-31T04:07:15;25.90;97.70
57576;DHT22;43412;-33.800;150.804;2022-10-31T04:09:43;25.80;97.60
57576;DHT22;43412;-33.800;150.804;2022-10-31T04:12:12;25.70;97.30
57576;DHT22;43412;-33.800;150.804;2022-10-31T04:14:43;25.70;97.40
57576;DHT22;43412;-33.800;150.804;2022-10-31T04:17:12;25.70;96.60
57576;DHT22;43412;-33.800;150.804;2022-10-31T04:19:40;25.80;96.60
57576;DHT22;43412;-33.800;150.804;2022-10-31T04:22:06;25.80;96.50
57576;DHT22;43412;-33.800;150.804;2022-10-31T04:24:33;25.90;96.40
57576;DHT22;43412;-33.800;150.804;2022-10-31T04:27:00;25.90;96.40
57576;DHT22;43412;-33.800;150.804;2022-10-31T04:29:26;26.00;96.40
57576;DHT22;43412;-33.800;150.804;2022-10-31T04:31:53;26.10;96.30
57576;DHT22;43412;-33.800;150.804;2022-10-31T04:34:20;26.10;96.30
57576;DHT22;43412;-33.800;150.804;2022-10-31T04:36:46;26.10;96.50
57576;DHT22;43412;-33.800;150.804;2022-10-31T04:39:13;26.10;96.10
57576;DHT22;43412;-33.800;150.804;2022-10-31T04:41:40;26.10;96.50
57576;DHT22;43412;-33.800;150.804;2022-10-31T04:44:06;26.00;96.30
57576;DHT22;43412;-33.800;150.804;2022-10-31T04:46:33;25.90;96.50
57576;DHT22;43412;-33.800;150.804;2022-10-31T04:48:59;26.00;95.80
57576;DHT22;43412;-33.800;150.804;2022-10-31T04:51:26;26.10;95.40
57576;DHT22;43412;-33.800;150.804;2022-10-31T04:53:53;26.10;95.50
57576;DHT22;43412;-33.800;150.804;2022-10-31T04:56:20;26.10;95.10
57576;DHT22;43412;-33.800;150.804;2022-10-31T04:58:46;26.20;94.70
57576;DHT22;43412;-33.800;150.804;2022-10-31T05:01:13;26.20;94.90
57576;DHT22;43412;-33.800;150.804;2022-10-31T05:03:39;26.20;95.30
57576;DHT22;43412;-33.800;150.804;2022-10-31T05:06:06;26.20;95.20
57576;DHT22;43412;-33.800;150.804;2022-10-31T05:08:33;26.30;95.20
57576;DHT22;43412;-33.800;150.804;2022-10-31T05:11:00;26.30;95.20
57576;DHT22;43412;-33.800;150.804;2022-10-31T05:13:27;26.60;95.40
57576;DHT22;43412;-33.800;150.804;2022-10-31T05:15:54;26.80;95.40
57576;DHT22;43412;-33.800;150.804;2022-10-31T05:18:21;27.10;94.90
57576;DHT22;43412;-33.800;150.804;2022-10-31T05:20:48;27.20;94.60
57576;DHT22;43412;-33.800;150.804;2022-10-31T05:23:14;27.10;94.40
57576;DHT22;43412;-33.800;150.804;2022-10-31T05:25:41;27.10;94.50
57576;DHT22;43412;-33.800;150.804;2022-10-31T05:28:08;27.00;94.60
57576;DHT22;43412;-33.800;150.804;2022-10-31T05:30:34;26.90;94.90
57576;DHT22;43412;-33.800;150.804;2022-10-31T05:33:01;26.80;95.10
57576;DHT22;43412;-33.800;150.804;2022-10-31T05:35:29;26.70;95.20
57576;DHT22;43412;-33.800;150.804;2022-10-31T05:37:56;26.70;95.30
57576;DHT22;43412;-33.800;150.804;2022-10-31T05:40:26;26.80;95.40
57576;DHT22;43412;-33.800;150.804;2022-10-31T05:42:54;26.80;95.10
57576;DHT22;43412;-33.800;150.804;2022-10-31T05:45:21;26.80;95.00
57576;DHT22;43412;-33.800;150.804;2022-10-31T05:47:55;26.80;95.00
57576;DHT22;43412;-33.800;150.804;2022-10-31T05:50:22;26.90;95.30
57576;DHT22;43412;-33.800;150.804;2022-10-31T05:53:01;26.90;95.40
57576;DHT22;43412;-33.800;150.804;2022-10-31T05:55:28;26.90;95.20
57576;DHT22;43412;-33.800;150.804;2022-10-31T05:57:55;26.80;95.00
57576;DHT22;43412;-33.800;150.804;2022-10-31T06:00:22;26.80;95.20
57576;DHT22;43412;-33.800;150.804;2022-10-31T06:02:53;26.60;95.00
57576;DHT22;43412;-33.800;150.804;2022-10-31T06:05:23;26.60;95.20
57576;DHT22;43412;-33.800;150.804;2022-10-31T06:07:50;26.60;95.50
57576;DHT22;43412;-33.800;150.804;2022-10-31T06:10:16;26.60;94.90
57576;DHT22;43412;-33.800;150.804;2022-10-31T06:12:45;26.60;95.00
57576;DHT22;43412;-33.800;150.804;2022-10-31T06:15:11;26.60;95.10
57576;DHT22;43412;-33.800;150.804;2022-10-31T06:17:38;26.60;95.00
57576;DHT22;43412;-33.800;150.804;2022-10-31T06:20:05;26.60;95.10
57576;DHT22;43412;-33.800;150.804;2022-10-31T06:22:32;26.50;95.10
57576;DHT22;43412;-33.800;150.804;2022-10-31T06:24:58;26.60;94.90
57576;DHT22;43412;-33.800;150.804;2022-10-31T06:27:25;26.60;94.70
57576;DHT22;43412;-33.800;150.804;2022-10-31T06:29:56;26.70;94.60
57576;DHT22;43412;-33.800;150.804;2022-10-31T06:32:22;26.70;94.80
57576;DHT22;43412;-33.800;150.804;2022-10-31T06:34:49;26.80;95.00
57576;DHT22;43412;-33.800;150.804;2022-10-31T06:37:16;26.70;95.20
57576;DHT22;43412;-33.800;150.804;2022-10-31T06:39:42;26.70;95.50
57576;DHT22;43412;-33.800;150.804;2022-10-31T06:42:09;26.60;95.10
57576;DHT22;43412;-33.800;150.804;2022-10-31T06:44:36;26.70;94.90
57576;DHT22;43412;-33.800;150.804;2022-10-31T06:47:02;26.60;95.00
57576;DHT22;43412;-33.800;150.804;2022-10-31T06:49:29;26.60;95.40
57576;DHT22;43412;-33.800;150.804;2022-10-31T06:51:56;26.50;95.60
57576;DHT22;43412;-33.800;150.804;2022-10-31T06:54:22;26.50;95.80
57576;DHT22;43412;-33.800;150.804;2022-10-31T06:56:49;26.40;95.60
57576;DHT22;43412;-33.800;150.804;2022-10-31T06:59:16;26.30;95.70
57576;DHT22;43412;-33.800;150.804;2022-10-31T07:01:43;26.30;95.80
57576;DHT22;43412;-33.800;150.804;2022-10-31T07:04:10;26.30;95.70
57576;DHT22;43412;-33.800;150.804;2022-10-31T07:06:37;26.40;94.90
57576;DHT22;43412;-33.800;150.804;2022-10-31T07:09:04;26.50;94.90
57576;DHT22;43412;-33.800;150.804;2022-10-31T07:11:30;26.50;94.70
57576;DHT22;43412;-33.800;150.804;2022-10-31T07:13:57;26.60;94.50
57576;DHT22;43412;-33.800;150.804;2022-10-31T07:16:24;26.70;94.30
57576;DHT22;43412;-33.800;150.804;2022-10-31T07:18:50;26.80;94.30
57576;DHT22;43412;-33.800;150.804;2022-10-31T07:21:17;26.80;94.40
57576;DHT22;43412;-33.800;150.804;2022-10-31T07:23:46;26.90;94.30
57576;DHT22;43412;-33.800;150.804;2022-10-31T07:26:13;26.90;94.10
57576;DHT22;43412;-33.800;150.804;2022-10-31T07:28:40;26.90;94.00
57576;DHT22;43412;-33.800;150.804;2022-10-31T07:31:07;27.00;93.90
57576;DHT22;43412;-33.800;150.804;2022-10-31T07:33:33;27.00;93.90
57576;DHT22;43412;-33.800;150.804;2022-10-31T07:36:00;27.00;93.90
57576;DHT22;43412;-33.800;150.804;2022-10-31T07:38:27;27.10;93.90
57576;DHT22;43412;-33.800;150.804;2022-10-31T07:40:53;27.00;93.80
57576;DHT22;43412;-33.800;150.804;2022-10-31T07:43:20;27.00;93.90
57576;DHT22;43412;-33.800;150.804;2022-10-31T07:45:51;26.90;94.00
57576;DHT22;43412;-33.800;150.804;2022-10-31T07:48:18;26.90;93.90
57576;DHT22;43412;-33.800;150.804;2022-10-31T07:50:45;26.90;94.00
57576;DHT22;43412;-33.800;150.804;2022-10-31T07:53:12;26.90;94.30
57576;DHT22;43412;-33.800;150.804;2022-10-31T07:55:39;26.80;94.20
57576;DHT22;43412;-33.800;150.804;2022-10-31T07:58:10;26.80;94.20
57576;DHT22;43412;-33.800;150.804;2022-10-31T08:00:37;26.70;94.30
57576;DHT22;43412;-33.800;150.804;2022-10-31T08:03:05;26.80;94.20
57576;DHT22;43412;-33.800;150.804;2022-10-31T08:05:32;26.80;94.30
57576;DHT22;43412;-33.800;150.804;2022-10-31T08:07:59;26.70;94.20
57576;DHT22;43412;-33.800;150.804;2022-10-31T08:10:26;26.80;94.30
57576;DHT22;43412;-33.800;150.804;2022-10-31T08:12:59;26.70;94.40
57576;DHT22;43412;-33.800;150.804;2022-10-31T08:15:26;26.70;94.50
57576;DHT22;43412;-33.800;150.804;2022-10-31T08:17:53;26.60;94.60
57576;DHT22;43412;-33.800;150.804;2022-10-31T08:20:20;26.60;94.70
57576;DHT22;43412;-33.800;150.804;2022-10-31T08:22:53;26.50;94.80
57576;DHT22;43412;-33.800;150.804;2022-10-31T08:25:20;26.50;95.00
57576;DHT22;43412;-33.800;150.804;2022-10-31T08:27:48;26.40;95.20
57576;DHT22;43412;-33.800;150.804;2022-10-31T08:30:16;26.30;95.50
57576;DHT22;43412;-33.800;150.804;2022-10-31T08:32:42;26.20;95.80
57576;DHT22;43412;-33.800;150.804;2022-10-31T08:35:09;26.10;96.10
57576;DHT22;43412;-33.800;150.804;2022-10-31T08:37:36;26.00;96.30
57576;DHT22;43412;-33.800;150.804;2022-10-31T08:40:03;25.90;96.50
57576;DHT22;43412;-33.800;150.804;2022-10-31T08:42:29;25.80;96.70
57576;DHT22;43412;-33.800;150.804;2022-10-31T08:44:56;25.70;96.80
57576;DHT22;43412;-33.800;150.804;2022-10-31T08:47:23;25.70;97.00
57576;DHT22;43412;-33.800;150.804;2022-10-31T08:49:49;25.60;97.10
57576;DHT22;43412;-33.800;150.804;2022-10-31T08:52:16;25.60;97.30
57576;DHT22;43412;-33.800;150.804;2022-10-31T08:54:42;25.50;97.40
57576;DHT22;43412;-33.800;150.804;2022-10-31T08:57:09;25.50;97.60
57576;DHT22;43412;-33.800;150.804;2022-10-31T08:59:36;25.40;97.70
57576;DHT22;43412;-33.800;150.804;2022-10-31T09:02:02;25.30;97.80
57576;DHT22;43412;-33.800;150.804;2022-10-31T09:04:29;25.30;97.90
57576;DHT22;43412;-33.800;150.804;2022-10-31T09:06:56;25.20;98.00
57576;DHT22;43412;-33.800;150.804;2022-10-31T09:09:22;25.20;98.20
57576;DHT22;43412;-33.800;150.804;2022-10-31T09:11:49;25.20;98.30
57576;DHT22;43412;-33.800;150.804;2022-10-31T09:14:16;25.10;98.50
57576;DHT22;43412;-33.800;150.804;2022-10-31T09:16:42;25.00;99.20
57576;DHT22;43412;-33.800;150.804;2022-10-31T09:19:09;24.70;99.80
57576;DHT22;43412;-33.800;150.804;2022-10-31T09:21:35;24.50;99.90
57576;DHT22;43412;-33.800;150.804;2022-10-31T09:24:02;24.30;99.90
57576;DHT22;43412;-33.800;150.804;2022-10-31T09:26:29;24.20;99.90
57576;DHT22;43412;-33.800;150.804;2022-10-31T09:28:56;24.00;99.90
57576;DHT22;43412;-33.800;150.804;2022-10-31T09:31:24;24.00;99.90
57576;DHT22;43412;-33.800;150.804;2022-10-31T09:33:52;24.00;99.90
57576;DHT22;43412;-33.800;150.804;2022-10-31T09:36:19;24.00;99.90
57576;DHT22;43412;-33.800;150.804;2022-10-31T09:38:45;24.00;99.90
57576;DHT22;43412;-33.800;150.804;2022-10-31T09:41:19;23.90;99.90
57576;DHT22;43412;-33.800;150.804;2022-10-31T09:46:22;23.90;99.90
57576;DHT22;43412;-33.800;150.804;2022-10-31T09:54:02;23.90;99.90
57576;DHT22;43412;-33.800;150.804;2022-10-31T09:56:31;23.90;99.90
57576;DHT22;43412;-33.800;150.804;2022-10-31T09:58:58;23.90;99.90
57576;DHT22;43412;-33.800;150.804;2022-10-31T10:01:29;23.90;99.90
57576;DHT22;43412;-33.800;150.804;2022-10-31T10:04:01;24.00;99.90
57576;DHT22;43412;-33.800;150.804;2022-10-31T10:06:29;23.90;99.90
57576;DHT22;43412;-33.800;150.804;2022-10-31T10:08:58;23.90;99.90
57576;DHT22;43412;-33.800;150.804;2022-10-31T10:14:03;23.90;99.90
57576;DHT22;43412;-33.800;150.804;2022-10-31T10:27:09;23.80;99.90
57576;DHT22;43412;-33.800;150.804;2022-10-31T10:29:47;23.80;99.90
57576;DHT22;43412;-33.800;150.804;2022-10-31T10:32:26;23.70;99.90
57576;DHT22;43412;-33.800;150.804;2022-10-31T10:35:14;23.60;99.90
57576;DHT22;43412;-33.800;150.804;2022-10-31T10:37:42;23.40;99.90
57576;DHT22;43412;-33.800;150.804;2022-10-31T10:40:13;23.20;99.90
57576;DHT22;43412;-33.800;150.804;2022-10-31T10:42:44;23.00;99.90
57576;DHT22;43412;-33.800;150.804;2022-10-31T10:45:29;22.80;99.90
57576;DHT22;43412;-33.800;150.804;2022-10-31T10:48:15;22.60;99.90
57576;DHT22;43412;-33.800;150.804;2022-10-31T10:50:46;22.40;99.90
57576;DHT22;43412;-33.800;150.804;2022-10-31T10:58:27;22.30;99.90
57576;DHT22;43412;-33.800;150.804;2022-10-31T11:00:54;22.30;99.90
57576;DHT22;43412;-33.800;150.804;2022-10-31T11:03:21;22.20;99.90
57576;DHT22;43412;-33.800;150.804;2022-10-31T11:05:50;22.20;99.90
57576;DHT22;43412;-33.800;150.804;2022-10-31T11:08:49;22.10;99.90
57576;DHT22;43412;-33.800;150.804;2022-10-31T11:14:03;22.00;99.90
57576;DHT22;43412;-33.800;150.804;2022-10-31T11:16:34;21.80;99.90
57576;DHT22;43412;-33.800;150.804;2022-10-31T11:19:16;21.80;99.90
57576;DHT22;43412;-33.800;150.804;2022-10-31T11:21:43;21.70;99.90
57576;DHT22;43412;-33.800;150.804;2022-10-31T11:26:38;21.50;99.90
57576;DHT22;43412;-33.800;150.804;2022-10-31T11:29:16;21.40;99.90
57576;DHT22;43412;-33.800;150.804;2022-10-31T11:31:43;21.40;99.90
57576;DHT22;43412;-33.800;150.804;2022-10-31T11:36:49;21.20;99.90
57576;DHT22;43412;-33.800;150.804;2022-10-31T11:39:22;21.20;99.90
57576;DHT22;43412;-33.800;150.804;2022-10-31T11:41:50;21.10;99.90
57576;DHT22;43412;-33.800;150.804;2022-10-31T11:44:22;21.00;99.90
57576;DHT22;43412;-33.800;150.804;2022-10-31T11:46:56;21.00;99.90
57576;DHT22;43412;-33.800;150.804;2022-10-31T11:51:52;20.80;99.90
57576;DHT22;43412;-33.800;150.804;2022-10-31T11:54:25;20.80;99.90
57576;DHT22;43412;-33.800;150.804;2022-10-31T11:56:52;20.80;99.90
57576;DHT22;43412;-33.800;150.804;2022-10-31T11:59:23;20.80;99.90
57576;DHT22;43412;-33.800;150.804;2022-10-31T12:01:51;20.70;99.90
57576;DHT22;43412;-33.800;150.804;2022-10-31T12:04:18;20.70;99.90
57576;DHT22;43412;-33.800;150.804;2022-10-31T12:06:49;20.70;99.90
57576;DHT22;43412;-33.800;150.804;2022-10-31T12:09:21;20.60;99.90
57576;DHT22;43412;-33.800;150.804;2022-10-31T12:12:36;20.60;99.90
57576;DHT22;43412;-33.800;150.804;2022-10-31T12:25:16;20.40;99.90
57576;DHT22;43412;-33.800;150.804;2022-10-31T12:27:57;20.40;99.90
57576;DHT22;43412;-33.800;150.804;2022-10-31T12:30:35;20.30;99.90
57576;DHT22;43412;-33.800;150.804;2022-10-31T12:38:43;20.20;99.90
57576;DHT22;43412;-33.800;150.804;2022-10-31T12:43:56;20.10;99.90
57576;DHT22;43412;-33.800;150.804;2022-10-31T12:46:34;20.20;99.90
57576;DHT22;43412;-33.800;150.804;2022-10-31T12:56:32;20.20;99.90
57576;DHT22;43412;-33.800;150.804;2022-10-31T13:01:35;20.20;99.90
57576;DHT22;43412;-33.800;150.804;2022-10-31T13:06:38;20.20;99.90
57576;DHT22;43412;-33.800;150.804;2022-10-31T13:09:07;20.20;99.90
57576;DHT22;43412;-33.800;150.804;2022-10-31T13:11:37;20.30;99.90
57576;DHT22;43412;-33.800;150.804;2022-10-31T13:16:49;20.30;99.90
57576;DHT22;43412;-33.800;150.804;2022-10-31T13:19:17;20.30;99.90
57576;DHT22;43412;-33.800;150.804;2022-10-31T13:24:16;20.30;99.90
57576;DHT22;43412;-33.800;150.804;2022-10-31T13:26:54;20.30;99.90
57576;DHT22;43412;-33.800;150.804;2022-10-31T13:31:54;20.40;99.90
57576;DHT22;43412;-33.800;150.804;2022-10-31T13:34:25;20.40;99.90
57576;DHT22;43412;-33.800;150.804;2022-10-31T13:41:54;20.60;99.90
57576;DHT22;43412;-33.800;150.804;2022-10-31T13:44:27;20.60;99.90
57576;DHT22;43412;-33.800;150.804;2022-10-31T13:46:56;20.60;99.90
57576;DHT22;43412;-33.800;150.804;2022-10-31T13:52:12;20.60;99.90
57576;DHT22;43412;-33.800;150.804;2022-10-31T13:54:57;20.70;99.90
57576;DHT22;43412;-33.800;150.804;2022-10-31T13:59:54;20.80;99.90
57576;DHT22;43412;-33.800;150.804;2022-10-31T14:02:26;20.90;99.90
57576;DHT22;43412;-33.800;150.804;2022-10-31T14:04:58;20.90;99.90
57576;DHT22;43412;-33.800;150.804;2022-10-31T14:07:25;21.00;99.90
57576;DHT22;43412;-33.800;150.804;2022-10-31T14:10:05;21.00;99.90
57576;DHT22;43412;-33.800;150.804;2022-10-31T14:12:37;21.00;99.90
57576;DHT22;43412;-33.800;150.804;2022-10-31T14:17:33;21.00;99.90
57576;DHT22;43412;-33.800;150.804;2022-10-31T14:22:33;21.00;99.90
57576;DHT22;43412;-33.800;150.804;2022-10-31T14:24:59;21.00;99.90
57576;DHT22;43412;-33.800;150.804;2022-10-31T14:29:53;20.90;99.90
57576;DHT22;43412;-33.800;150.804;2022-10-31T14:37:29;20.90;99.90
57576;DHT22;43412;-33.800;150.804;2022-10-31T14:42:31;21.00;99.90
57576;DHT22;43412;-33.800;150.804;2022-10-31T14:45:15;21.00;99.90
57576;DHT22;43412;-33.800;150.804;2022-10-31T14:50:42;21.00;99.90
57576;DHT22;43412;-33.800;150.804;2022-10-31T14:53:14;21.00;99.90
57576;DHT22;43412;-33.800;150.804;2022-10-31T14:55:45;21.00;99.90
57576;DHT22;43412;-33.800;150.804;2022-10-31T14:58:15;21.00;99.90
57576;DHT22;43412;-33.800;150.804;2022-10-31T15:00:43;21.00;99.90
57576;DHT22;43412;-33.800;150.804;2022-10-31T15:06:09;21.00;99.90
57576;DHT22;43412;-33.800;150.804;2022-10-31T15:08:50;20.90;99.90
57576;DHT22;43412;-33.800;150.804;2022-10-31T15:11:21;20.90;99.90
57576;DHT22;43412;-33.800;150.804;2022-10-31T15:13:52;20.90;99.90
57576;DHT22;43412;-33.800;150.804;2022-10-31T15:16:30;20.90;99.90
57576;DHT22;43412;-33.800;150.804;2022-10-31T15:18:58;21.00;99.90
57576;DHT22;43412;-33.800;150.804;2022-10-31T15:21:26;21.00;99.90
57576;DHT22;43412;-33.800;150.804;2022-10-31T15:23:59;21.10;99.90
57576;DHT22;43412;-33.800;150.804;2022-10-31T15:26:31;21.10;99.90
57576;DHT22;43412;-33.800;150.804;2022-10-31T15:28:59;21.20;99.90
57576;DHT22;43412;-33.800;150.804;2022-10-31T15:31:26;21.20;99.90
57576;DHT22;43412;-33.800;150.804;2022-10-31T15:33:52;21.20;99.90
57576;DHT22;43412;-33.800;150.804;2022-10-31T15:36:21;21.30;99.90
57576;DHT22;43412;-33.800;150.804;2022-10-31T15:38:48;21.30;99.90
57576;DHT22;43412;-33.800;150.804;2022-10-31T15:41:21;21.20;99.90
57576;DHT22;43412;-33.800;150.804;2022-10-31T15:43:49;21.30;99.90
57576;DHT22;43412;-33.800;150.804;2022-10-31T15:46:15;21.30;99.90
57576;DHT22;43412;-33.800;150.804;2022-10-31T15:48:48;21.30;99.90
57576;DHT22;43412;-33.800;150.804;2022-10-31T15:51:15;21.30;99.90
57576;DHT22;43412;-33.800;150.804;2022-10-31T15:53:43;21.30;99.90
57576;DHT22;43412;-33.800;150.804;2022-10-31T15:56:12;21.30;99.90
57576;DHT22;43412;-33.800;150.804;2022-10-31T15:58:42;21.30;99.90
57576;DHT22;43412;-33.800;150.804;2022-10-31T16:06:39;21.30;99.90
57576;DHT22;43412;-33.800;150.804;2022-10-31T16:09:21;21.20;99.90
57576;DHT22;43412;-33.800;150.804;2022-10-31T16:11:48;21.20;99.90
57576;DHT22;43412;-33.800;150.804;2022-10-31T16:14:16;21.20;99.90
57576;DHT22;43412;-33.800;150.804;2022-10-31T16:16:45;21.20;99.90
57576;DHT22;43412;-33.800;150.804;2022-10-31T16:19:19;21.20;99.90
57576;DHT22;43412;-33.800;150.804;2022-10-31T16:21:47;21.20;99.90
57576;DHT22;43412;-33.800;150.804;2022-10-31T16:26:41;21.20;99.90
57576;DHT22;43412;-33.800;150.804;2022-10-31T16:29:22;21.30;99.90
57576;DHT22;43412;-33.800;150.804;2022-10-31T16:31:49;21.30;99.90
57576;DHT22;43412;-33.800;150.804;2022-10-31T16:34:22;21.30;99.90
57576;DHT22;43412;-33.800;150.804;2022-10-31T16:36:49;21.30;99.90
57576;DHT22;43412;-33.800;150.804;2022-10-31T16:39:16;21.30;99.90
57576;DHT22;43412;-33.800;150.804;2022-10-31T16:41:44;21.40;99.90
57576;DHT22;43412;-33.800;150.804;2022-10-31T16:44:29;21.50;99.90
57576;DHT22;43412;-33.800;150.804;2022-10-31T16:47:15;21.60;99.90
57576;DHT22;43412;-33.800;150.804;2022-10-31T16:49:42;21.60;99.90
57576;DHT22;43412;-33.800;150.804;2022-10-31T16:52:09;21.60;99.90
57576;DHT22;43412;-33.800;150.804;2022-10-31T16:54:36;21.60;99.90
57576;DHT22;43412;-33.800;150.804;2022-10-31T16:57:03;21.50;99.90
57576;DHT22;43412;-33.800;150.804;2022-10-31T16:59:30;21.50;99.90
57576;DHT22;43412;-33.800;150.804;2022-10-31T17:01:59;21.40;99.90
57576;DHT22;43412;-33.800;150.804;2022-10-31T17:04:26;21.30;99.90
57576;DHT22;43412;-33.800;150.804;2022-10-31T17:06:52;21.30;99.90
57576;DHT22;43412;-33.800;150.804;2022-10-31T17:09:19;21.20;99.90
57576;DHT22;43412;-33.800;150.804;2022-10-31T17:11:48;21.10;99.90
57576;DHT22;43412;-33.800;150.804;2022-10-31T17:14:16;21.10;99.90
57576;DHT22;43412;-33.800;150.804;2022-10-31T17:16:44;21.20;99.90
57576;DHT22;43412;-33.800;150.804;2022-10-31T17:19:10;21.10;99.90